Barbados Meteorological Services
Auto gathered TAF list
Powered by Apparatus software
For Flight VEC321
Contact Number 1-(246)-535-0021/2/3/4/5/6
WEB: http://www.barbadosweather.org

**********************************************

2018/02/23 18:05
TAF TVSA 231700Z 2318/2418 07016KT 9999 BKN016 SCT034
TEMPO 2318/2403 07016G30KT 4000 SHRA RA BKN014


**********************************************
2018/02/23 18:27
TAF TTPP 231600Z 2318/2418 09014KT 9999 SHRA SCT018
BECMG 2323/2402 00000KT PROB40
TEMPO 2402/2412 5000 SHWR PROB30 2406/2411 08010G20KT
BECMG 2412/2413 09012KT BKN018


**********************************************
2018/02/23 18:27
TAF TTCP 231600Z 2318/2418 09014KT 9999 SHRA SCT018
BECMG 2323/2402 00000KT PROB40
TEMPO 2402/2412 5000 SHWR PROB30 2406/2411 08010G20KT
BECMG 2412/2413 09012KT BKN018


**********************************************
2018/02/23 18:15
TAF TLPL 231700Z 2318/2418 07021KT 9999 SCT022
TEMPO 2318/2404 5000 SHRA FEW015TCU BKN018


**********************************************
2018/02/23 18:15
TAF TAF TLPC 231700Z 2318/2418 08012G23KT 9999 SCT022
TEMPO 2318/2404 5000 SHRA FEW015TCU BKN018


**********************************************
2018/02/23 18:24
TAF TJSJ 231720Z 2318/2418 08015KT P6SM FEW030 SCT050
FM232300 11010KT P6SM SCT030
FM241300 08015G25KT P6SM SCT030 SCT050


**********************************************
2018/02/23 18:42
TAF TAF TGPY 231638Z 2318/2418 09015KT 9999 SCT018


**********************************************
2018/02/23 18:06
TAF TBPB 231700Z 2318/2418 08024KT 9999 SCT016 BKN034
TEMPO 2318/2403 08024G36KT 4000 SHRA RA BKN014


**********************************************
2018/02/23 18:10
TAF SYCJ 231700Z 2318/2418 05010KT 9999 BKN016 SCT045
BECMG 2322/2400 04006KT SCT014
BECMG 2405/2407 VRB02KT 4000 BR SCT012 SCT038
BECMG 2411/2413 08012KT 9999 BKN018


**********************************************
2018/02/23 18:06
TAF SVMI 231600Z 2318/2418 09010KT 9999 SCT016 TX32/18Z TN24/09Z
BECMG 2318/2322 07005KT BKN020


**********************************************
2018/02/23 18:06
TAF TAF SOCA 231600Z 2318/2418 05010KT 9999 SCT025 BKN045 BKN080
TEMPO 2318/2322 3000 SHRA SCT015TCU PROB30
TEMPO 2318/2322 1000 TSRA FEW012CB
BECMG 2322/2323 VRB03KT
TEMPO 2406/2411 2000 SHRA SCT012TCU
FM241200 05010KT 9999 SCT020 BKN040 BKN080


**********************************************
2018/02/23 18:09
TAF TAF SMJP 231600Z 2318/2418 03010KT 9999 SCT025 TX30/2318Z TN22/2410Z
TEMPO 2318/2321 VRB12G22KT 4000 SHRA FEW015TCU
BECMG 2323/2400 04005KT FEW010 PROB30
TEMPO 2408/2411 00000KT 2000 BR SCT002
FM241200 06008KT 9999 SCT015


**********************************************